Time,TemperatureF,DewpointF,PressureIn,WindDirection,WindDirectionDegrees,WindSpeedMPH,WindSpeedGustMPH,Humidity,HourlyPrecipIn,Conditions,Clouds,dailyrainin,SoftwareType,DateUTC
2013-09-06 00:01:00,80.4,77.3,30.09,SE,132,0.0,0.0,90,0.00,,,0.00,WUHU216PEETBRO,2013-09-06 04:01:00,
2013-09-06 00:02:00,80.4,77.3,30.09,SE,132,0.0,0.0,90,0.00,,,0.00,WUHU216PEETBRO,2013-09-06 04:02:00,
2013-09-06 00:07:00,80.5,77.4,30.09,SE,132,0.0,0.0,90,0.00,,,0.00,WUHU216PEETBRO,2013-09-06 04:07:00,
2013-09-06 00:12:00,80.5,77.5,30.09,SE,132,0.0,0.0,91,0.00,,,0.00,WUHU216PEETBRO,2013-09-06 04:12:00,
2013-09-06 00:17:00,80.5,77.5,30.09,SE,132,0.0,0.0,91,0.00,,,0.00,WUHU216PEETBRO,2013-09-06 04:17:00,
2013-09-06 00:22:00,80.3,77.3,30.09,SE,132,0.0,0.0,91,0.00,,,0.00,WUHU216PEETBRO,2013-09-06 04:22:00,
2013-09-06 00:27:00,80.3,77.4,30.09,SE,132,0.0,0.0,91,0.00,,,0.00,WUHU216PEETBRO,2013-09-06 04:27:00,
2013-09-06 00:32:00,80.2,77.3,30.09,SE,132,0.0,0.0,91,0.00,,,0.00,WUHU216PEETBRO,2013-09-06 04:32:00,
2013-09-06 00:37:00,80.1,77.2,30.09,SE,132,0.0,0.0,91,0.00,,,0.00,WUHU216PEETBRO,2013-09-06 04:37:00,
2013-09-06 00:42:00,80.0,77.2,30.09,SE,132,0.0,0.0,91,0.00,,,0.00,WUHU216PEETBRO,2013-09-06 04:42:00,
2013-09-06 00:47:00,80.0,77.2,30.09,SE,132,0.0,0.0,91,0.00,,,0.00,WUHU216PEETBRO,2013-09-06 04:47:00,
2013-09-06 00:52:00,79.9,77.1,30.09,SE,132,0.0,0.0,91,0.00,,,0.00,WUHU216PEETBRO,2013-09-06 04:52:00,
2013-09-06 00:57:00,79.8,77.1,30.09,SE,132,0.0,0.0,91,0.00,,,0.00,WUHU216PEETBRO,2013-09-06 04:57:00,
2013-09-06 01:02:00,79.7,77.0,30.09,SE,132,0.0,0.0,92,0.00,,,0.00,WUHU216PEETBRO,2013-09-06 05:02:00,
2013-09-06 01:07:00,79.5,76.8,30.09,SE,132,0.0,0.0,92,0.00,,,0.00,WUHU216PEETBRO,2013-09-06 05:07:00,
2013-09-06 01:12:00,79.4,76.8,30.09,SE,132,0.0,0.0,92,0.00,,,0.00,WUHU216PEETBRO,2013-09-06 05:12:00,
2013-09-06 01:17:00,79.3,76.7,30.09,SE,132,0.0,0.0,92,0.00,,,0.00,WUHU216PEETBRO,2013-09-06 05:17:00,
2013-09-06 01:22:00,79.2,76.7,30.08,SE,132,0.0,0.0,92,0.00,,,0.00,WUHU216PEETBRO,2013-09-06 05:22:00,
2013-09-06 01:27:00,79.0,76.5,30.08,SE,132,0.0,0.0,92,0.00,,,0.00,WUHU216PEETBRO,2013-09-06 05:27:00,
2013-09-06 01:32:00,79.1,76.7,30.08,SE,132,0.0,0.0,93,0.00,,,0.00,WUHU216PEETBRO,2013-09-06 05:32:00,
2013-09-06 01:37:00,79.1,76.8,30.08,SE,132,0.0,0.0,93,0.00,,,0.00,WUHU216PEETBRO,2013-09-06 05:37:00,
2013-09-06 01:42:00,79.0,76.7,30.08,SE,132,0.0,0.0,93,0.00,,,0.00,WUHU216PEETBRO,2013-09-06 05:42:00,
2013-09-06 01:47:00,78.9,76.6,30.08,SE,132,0.0,0.0,93,0.00,,,0.00,WUHU216PEETBRO,2013-09-06 05:47:00,
2013-09-06 01:52:00,79.0,76.8,30.08,SE,132,0.0,0.0,93,0.00,,,0.00,WUHU216PEETBRO,2013-09-06 05:52:00,
2013-09-06 01:57:00,79.0,76.9,30.07,SE,132,0.0,0.0,93,0.00,,,0.00,WUHU216PEETBRO,2013-09-06 05:57:00,
2013-09-06 02:02:00,79.0,76.9,30.07,SE,132,0.0,0.0,93,0.00,,,0.00,WUHU216PEETBRO,2013-09-06 06:02:00,
2013-09-06 02:07:00,79.1,77.1,30.07,SE,132,0.0,0.0,94,0.00,,,0.00,WUHU216PEETBRO,2013-09-06 06:07:00,
2013-09-06 02:12:00,79.0,77.0,30.07,SE,132,0.0,0.0,94,0.00,,,0.00,WUHU216PEETBRO,2013-09-06 06:12:00,
2013-09-06 02:17:00,79.0,77.0,30.07,SE,132,0.0,0.0,94,0.00,,,0.00,WUHU216PEETBRO,2013-09-06 06:17:00,
2013-09-06 02:22:00,78.9,76.9,30.06,SE,132,0.0,0.0,94,0.00,,,0.00,WUHU216PEETBRO,2013-09-06 06:22:00,
2013-09-06 02:27:00,79.0,77.1,30.06,SE,132,0.0,0.0,94,0.00,,,0.00,WUHU216PEETBRO,2013-09-06 06:27:00,
2013-09-06 02:32:00,79.0,77.1,30.06,SE,132,0.0,0.0,94,0.00,,,0.00,WUHU216PEETBRO,2013-09-06 06:32:00,
2013-09-06 02:37:00,78.8,76.9,30.06,SE,132,0.0,0.0,94,0.00,,,0.00,WUHU216PEETBRO,2013-09-06 06:37:00,
2013-09-06 02:42:00,78.7,76.8,30.06,SE,132,0.0,0.0,94,0.00,,,0.00,WUHU216PEETBRO,2013-09-06 06:42:00,
2013-09-06 02:47:00,78.5,76.7,30.06,SE,132,0.0,0.0,94,0.00,,,0.00,WUHU216PEETBRO,2013-09-06 06:47:00,
2013-09-06 02:52:00,78.4,76.6,30.06,SE,132,0.0,0.0,94,0.00,,,0.00,WUHU216PEETBRO,2013-09-06 06:52:00,
2013-09-06 02:57:00,78.4,76.6,30.06,SE,132,0.0,0.0,94,0.00,,,0.00,WUHU216PEETBRO,2013-09-06 06:57:00,
2013-09-06 03:02:00,78.2,76.4,30.06,SE,132,0.0,0.0,94,0.00,,,0.00,WUHU216PEETBRO,2013-09-06 07:02:00,
2013-09-06 03:07:00,78.1,76.4,30.06,SE,132,0.0,0.0,95,0.00,,,0.00,WUHU216PEETBRO,2013-09-06 07:07:00,
2013-09-06 03:12:00,78.1,76.4,30.06,SE,132,0.0,0.0,95,0.00,,,0.00,WUHU216PEETBRO,2013-09-06 07:12:00,
2013-09-06 03:17:00,78.1,76.4,30.06,SE,132,0.0,0.0,95,0.00,,,0.00,WUHU216PEETBRO,2013-09-06 07:17:00,
2013-09-06 03:22:00,78.2,76.6,30.06,SE,132,0.0,0.0,95,0.00,,,0.00,WUHU216PEETBRO,2013-09-06 07:22:00,
2013-09-06 03:27:00,78.3,76.7,30.06,SE,132,0.0,0.0,95,0.00,,,0.00,WUHU216PEETBRO,2013-09-06 07:27:00,
2013-09-06 03:32:00,78.3,76.7,30.07,NW,316,0.0,4.7,95,0.00,,,0.00,WUHU216PEETBRO,2013-09-06 07:32:00,
2013-09-06 03:37:00,78.2,76.7,30.06,NW,316,0.0,4.7,95,0.00,,,0.00,WUHU216PEETBRO,2013-09-06 07:37:00,
2013-09-06 03:42:00,78.1,76.6,30.06,NW,316,0.0,0.0,95,0.00,,,0.00,WUHU216PEETBRO,2013-09-06 07:42:00,
2013-09-06 03:47:00,78.0,76.5,30.06,NW,316,0.0,0.0,95,0.00,,,0.00,WUHU216PEETBRO,2013-09-06 07:47:00,
2013-09-06 03:52:00,78.0,76.5,30.06,NW,316,0.0,0.0,95,0.00,,,0.00,WUHU216PEETBRO,2013-09-06 07:52:00,
2013-09-06 03:57:00,78.0,76.5,30.06,NW,316,0.0,0.0,95,0.00,,,0.00,WUHU216PEETBRO,2013-09-06 07:57:00,
2013-09-06 04:02:00,78.0,76.6,30.06,NW,316,0.0,0.0,96,0.00,,,0.00,WUHU216PEETBRO,2013-09-06 08:02:00,
2013-09-06 04:07:00,78.0,76.6,30.06,NW,316,0.0,0.0,96,0.00,,,0.00,WUHU216PEETBRO,2013-09-06 08:07:00,
2013-09-06 04:12:00,78.0,76.6,30.06,NW,316,0.0,0.0,96,0.00,,,0.00,WUHU216PEETBRO,2013-09-06 08:12:00,
2013-09-06 04:17:00,77.9,76.5,30.06,NW,316,0.0,0.0,96,0.00,,,0.00,WUHU216PEETBRO,2013-09-06 08:17:00,
2013-09-06 04:22:00,78.0,76.7,30.06,NW,316,0.0,0.0,96,0.00,,,0.00,WUHU216PEETBRO,2013-09-06 08:22:00,
2013-09-06 04:27:00,77.9,76.6,30.06,NW,316,0.0,0.0,96,0.00,,,0.00,WUHU216PEETBRO,2013-09-06 08:27:00,
2013-09-06 04:32:00,77.9,76.6,30.06,NW,316,0.0,0.0,96,0.00,,,0.00,WUHU216PEETBRO,2013-09-06 08:32:00,
2013-09-06 04:37:00,77.9,76.6,30.06,NW,316,0.0,0.0,96,0.00,,,0.00,WUHU216PEETBRO,2013-09-06 08:37:00,
2013-09-06 04:42:00,77.9,76.6,30.06,NW,316,0.0,0.0,96,0.00,,,0.00,WUHU216PEETBRO,2013-09-06 08:42:00,
2013-09-06 04:47:00,77.9,76.7,30.06,NW,316,0.0,0.0,96,0.00,,,0.00,WUHU216PEETBRO,2013-09-06 08:47:00,
2013-09-06 04:52:00,77.9,76.7,30.06,NW,316,0.0,0.0,96,0.00,,,0.00,WUHU216PEETBRO,2013-09-06 08:52:00,
2013-09-06 04:57:00,77.9,76.7,30.06,NW,316,0.0,0.0,96,0.00,,,0.00,WUHU216PEETBRO,2013-09-06 08:57:00,
2013-09-06 05:02:00,77.9,76.7,30.06,NW,316,0.0,0.0,96,0.00,,,0.00,WUHU216PEETBRO,2013-09-06 09:02:00,
2013-09-06 05:07:00,77.9,76.7,30.06,NW,316,0.0,0.0,96,0.00,,,0.00,WUHU216PEETBRO,2013-09-06 09:07:00,
2013-09-06 05:12:00,78.0,76.8,30.06,NW,316,0.0,0.0,96,0.00,,,0.00,WUHU216PEETBRO,2013-09-06 09:12:00,
2013-09-06 05:17:00,78.0,76.8,30.06,NW,316,0.0,0.0,96,0.00,,,0.00,WUHU216PEETBRO,2013-09-06 09:17:00,
2013-09-06 05:22:00,77.9,76.7,30.06,NW,316,0.0,0.0,96,0.00,,,0.00,WUHU216PEETBRO,2013-09-06 09:22:00,
2013-09-06 05:27:00,77.9,76.7,30.06,NW,316,0.0,0.0,96,0.00,,,0.00,WUHU216PEETBRO,2013-09-06 09:27:00,
2013-09-06 05:32:00,77.8,76.6,30.07,NW,316,0.0,0.0,96,0.00,,,0.00,WUHU216PEETBRO,2013-09-06 09:32:00,
2013-09-06 05:37:00,77.9,76.8,30.07,NW,316,0.0,0.0,97,0.00,,,0.00,WUHU216PEETBRO,2013-09-06 09:37:00,
2013-09-06 05:42:00,77.9,76.7,30.07,NW,316,0.0,0.0,96,0.00,,,0.00,WUHU216PEETBRO,2013-09-06 09:42:00,
2013-09-06 05:47:00,77.8,76.6,30.07,NW,316,0.0,0.0,96,0.00,,,0.00,WUHU216PEETBRO,2013-09-06 09:47:00,
2013-09-06 05:52:00,77.7,76.5,30.07,NW,316,0.0,0.0,96,0.00,,,0.00,WUHU216PEETBRO,2013-09-06 09:52:00,
2013-09-06 05:57:00,77.5,76.3,30.07,NW,316,0.0,0.0,96,0.00,,,0.00,WUHU216PEETBRO,2013-09-06 09:57:00,
2013-09-06 06:02:00,77.5,76.4,30.07,NW,316,0.0,0.0,97,0.00,,,0.00,WUHU216PEETBRO,2013-09-06 10:02:00,
2013-09-06 06:07:00,77.7,76.6,30.07,NW,316,0.0,0.0,97,0.00,,,0.00,WUHU216PEETBRO,2013-09-06 10:07:00,
2013-09-06 06:12:00,77.7,76.6,30.07,NW,316,0.0,0.0,97,0.00,,,0.00,WUHU216PEETBRO,2013-09-06 10:12:00,
2013-09-06 06:17:00,77.7,76.6,30.07,NW,316,0.0,0.0,97,0.00,,,0.00,WUHU216PEETBRO,2013-09-06 10:17:00,
2013-09-06 06:22:00,77.7,76.6,30.07,NW,316,0.0,0.0,97,0.00,,,0.00,WUHU216PEETBRO,2013-09-06 10:22:00,
2013-09-06 06:27:00,77.8,76.8,30.07,NW,316,0.0,0.0,97,0.00,,,0.00,WUHU216PEETBRO,2013-09-06 10:27:00,
2013-09-06 06:32:00,77.8,76.7,30.07,NW,316,0.0,0.0,97,0.00,,,0.00,WUHU216PEETBRO,2013-09-06 10:32:00,
2013-09-06 06:37:00,77.7,76.6,30.07,NW,316,0.0,0.0,97,0.00,,,0.00,WUHU216PEETBRO,2013-09-06 10:37:00,
2013-09-06 06:42:00,77.5,76.4,30.06,NW,316,0.0,0.0,97,0.00,,,0.00,WUHU216PEETBRO,2013-09-06 10:42:00,
2013-09-06 06:47:00,77.4,76.3,30.06,NW,316,0.0,0.0,97,0.00,,,0.00,WUHU216PEETBRO,2013-09-06 10:47:00,
2013-09-06 06:52:00,77.4,76.4,30.06,NW,316,0.0,0.0,97,0.00,,,0.00,WUHU216PEETBRO,2013-09-06 10:52:00,
2013-09-06 06:57:00,77.4,76.4,30.06,NW,316,0.0,0.0,97,0.00,,,0.00,WUHU216PEETBRO,2013-09-06 10:57:00,
2013-09-06 07:02:00,77.3,76.3,30.06,NW,316,0.0,0.0,97,0.00,,,0.00,WUHU216PEETBRO,2013-09-06 11:02:00,
2013-09-06 07:07:00,77.3,76.3,30.06,NW,316,0.0,0.0,97,0.00,,,0.00,WUHU216PEETBRO,2013-09-06 11:07:00,
2013-09-06 07:12:00,77.3,76.3,30.06,NW,316,0.0,0.0,97,0.00,,,0.00,WUHU216PEETBRO,2013-09-06 11:12:00,
2013-09-06 07:17:00,77.3,76.3,30.06,NW,316,0.0,0.0,97,0.00,,,0.00,WUHU216PEETBRO,2013-09-06 11:17:00,
2013-09-06 07:22:00,77.3,76.4,30.06,NW,316,0.0,0.0,97,0.00,,,0.00,WUHU216PEETBRO,2013-09-06 11:22:00,
2013-09-06 07:27:00,77.5,76.6,30.06,NW,316,0.0,0.0,97,0.00,,,0.00,WUHU216PEETBRO,2013-09-06 11:27:00,
2013-09-06 07:32:00,77.4,76.4,30.06,NW,316,0.0,0.0,97,0.00,,,0.00,WUHU216PEETBRO,2013-09-06 11:32:00,
2013-09-06 07:37:00,77.4,76.4,30.07,NW,316,0.0,0.0,97,0.00,,,0.00,WUHU216PEETBRO,2013-09-06 11:37:00,
2013-09-06 07:42:00,77.4,76.5,30.07,NW,316,0.0,0.0,97,0.00,,,0.00,WUHU216PEETBRO,2013-09-06 11:42:00,
2013-09-06 07:47:00,77.7,76.8,30.07,NW,316,0.0,0.0,97,0.00,,,0.00,WUHU216PEETBRO,2013-09-06 11:47:00,
2013-09-06 07:52:00,77.8,76.9,30.07,NW,316,0.0,0.0,97,0.00,,,0.00,WUHU216PEETBRO,2013-09-06 11:52:00,
2013-09-06 07:57:00,77.9,77.0,30.07,NW,316,0.0,0.0,97,0.00,,,0.00,WUHU216PEETBRO,2013-09-06 11:57:00,
2013-09-06 08:02:00,78.1,77.2,30.07,NW,316,0.0,0.0,97,0.00,,,0.00,WUHU216PEETBRO,2013-09-06 12:02:00,
2013-09-06 08:07:00,78.7,77.9,30.07,NW,316,0.0,0.0,98,0.00,,,0.00,WUHU216PEETBRO,2013-09-06 12:07:00,
2013-09-06 08:12:00,79.2,78.5,30.07,NW,316,0.0,0.0,98,0.00,,,0.00,WUHU216PEETBRO,2013-09-06 12:12:00,
2013-09-06 08:17:00,79.7,78.9,30.07,NW,316,0.0,0.0,97,0.00,,,0.00,WUHU216PEETBRO,2013-09-06 12:17:00,
2013-09-06 08:22:00,80.0,79.1,30.07,NW,316,0.0,0.0,97,0.00,,,0.00,WUHU216PEETBRO,2013-09-06 12:22:00,
2013-09-06 08:27:00,80.2,79.3,30.08,NW,316,0.0,0.0,97,0.00,,,0.00,WUHU216PEETBRO,2013-09-06 12:27:00,
2013-09-06 08:32:00,80.2,79.2,30.08,NW,316,0.0,0.0,97,0.00,,,0.00,WUHU216PEETBRO,2013-09-06 12:32:00,
2013-09-06 08:37:00,80.4,79.4,30.08,NW,316,0.0,0.0,97,0.00,,,0.00,WUHU216PEETBRO,2013-09-06 12:37:00,
2013-09-06 08:42:00,80.6,79.5,30.08,NW,316,0.0,0.0,97,0.00,,,0.00,WUHU216PEETBRO,2013-09-06 12:42:00,
2013-09-06 08:47:00,81.0,79.9,30.08,NW,316,0.0,0.0,97,0.00,,,0.00,WUHU216PEETBRO,2013-09-06 12:47:00,
2013-09-06 08:52:00,81.4,80.2,30.08,NW,316,0.0,0.0,96,0.00,,,0.00,WUHU216PEETBRO,2013-09-06 12:52:00,
2013-09-06 08:57:00,82.0,80.7,30.08,NW,316,0.0,0.0,96,0.00,,,0.00,WUHU216PEETBRO,2013-09-06 12:57:00,
2013-09-06 09:02:00,82.7,81.2,30.08,NW,316,0.0,0.0,95,0.00,,,0.00,WUHU216PEETBRO,2013-09-06 13:02:00,
2013-09-06 09:07:00,83.4,81.7,30.08,NW,316,0.0,0.0,95,0.00,,,0.00,WUHU216PEETBRO,2013-09-06 13:07:00,
2013-09-06 09:12:00,83.6,81.5,30.08,SE,131,0.0,0.0,93,0.00,,,0.00,WUHU216PEETBRO,2013-09-06 13:12:00,
2013-09-06 09:17:00,83.9,81.4,30.08,ESE,117,0.0,3.2,92,0.00,,,0.00,WUHU216PEETBRO,2013-09-06 13:17:00,
2013-09-06 09:22:00,84.0,80.9,30.08,ESE,117,0.0,3.2,90,0.00,,,0.00,WUHU216PEETBRO,2013-09-06 13:22:00,
2013-09-06 09:27:00,83.8,80.2,30.08,ESE,107,0.0,5.3,89,0.00,,,0.00,WUHU216PEETBRO,2013-09-06 13:27:00,
2013-09-06 09:32:00,83.9,80.2,30.08,ESE,104,0.0,5.3,89,0.00,,,0.00,WUHU216PEETBRO,2013-09-06 13:32:00,
2013-09-06 09:37:00,84.3,80.1,30.08,ENE,76,0.0,5.2,87,0.00,,,0.00,WUHU216PEETBRO,2013-09-06 13:37:00,
2013-09-06 09:42:00,84.5,79.4,30.08,NE,40,0.0,5.2,85,0.00,,,0.00,WUHU216PEETBRO,2013-09-06 13:42:00,
2013-09-06 09:47:00,84.2,78.7,30.08,East,81,0.0,6.0,83,0.00,,,0.00,WUHU216PEETBRO,2013-09-06 13:47:00,
2013-09-06 09:52:00,84.4,78.6,30.08,ESE,110,4.8,6.8,82,0.00,,,0.00,WUHU216PEETBRO,2013-09-06 13:52:00,
2013-09-06 09:57:00,84.7,78.3,30.08,SE,128,0.0,6.8,81,0.00,,,0.00,WUHU216PEETBRO,2013-09-06 13:57:00,
2013-09-06 10:02:00,85.0,78.3,30.08,East,80,0.0,6.0,80,0.00,,,0.00,WUHU216PEETBRO,2013-09-06 14:02:00,
2013-09-06 10:07:00,85.1,78.0,30.08,ENE,66,0.0,6.0,79,0.00,,,0.00,WUHU216PEETBRO,2013-09-06 14:07:00,
2013-09-06 10:12:00,85.1,78.1,30.08,ENE,66,0.0,4.2,79,0.00,,,0.00,WUHU216PEETBRO,2013-09-06 14:12:00,
2013-09-06 10:17:00,85.0,77.1,30.08,ENE,66,0.0,0.0,77,0.00,,,0.00,WUHU216PEETBRO,2013-09-06 14:17:00,
2013-09-06 10:22:00,85.0,77.0,30.09,East,83,0.0,6.2,77,0.00,,,0.00,WUHU216PEETBRO,2013-09-06 14:22:00,
2013-09-06 10:27:00,85.3,76.8,30.09,East,83,0.0,6.2,75,0.00,,,0.00,WUHU216PEETBRO,2013-09-06 14:27:00,
2013-09-06 10:32:00,85.9,76.9,30.09,East,83,0.0,0.0,74,0.00,,,0.00,WUHU216PEETBRO,2013-09-06 14:32:00,
2013-09-06 10:37:00,86.8,76.9,30.08,ENE,59,0.0,3.2,72,0.00,,,0.00,WUHU216PEETBRO,2013-09-06 14:37:00,
2013-09-06 10:42:00,87.4,76.1,30.09,NE,42,0.0,4.4,69,0.00,,,0.00,WUHU216PEETBRO,2013-09-06 14:42:00,
2013-09-06 10:47:00,87.6,76.0,30.09,NE,47,0.0,4.4,68,0.00,,,0.00,WUHU216PEETBRO,2013-09-06 14:47:00,
2013-09-06 10:52:00,88.3,76.1,30.09,NE,47,0.0,0.0,67,0.00,,,0.00,WUHU216PEETBRO,2013-09-06 14:52:00,
2013-09-06 10:57:00,88.5,75.4,30.09,NE,47,0.0,0.0,65,0.00,,,0.00,WUHU216PEETBRO,2013-09-06 14:57:00,
2013-09-06 11:02:00,88.2,75.6,30.09,SSW,196,0.0,7.1,66,0.00,,,0.00,WUHU216PEETBRO,2013-09-06 15:02:00,
2013-09-06 11:07:00,88.2,75.8,30.08,SW,224,0.0,7.1,66,0.00,,,0.00,WUHU216PEETBRO,2013-09-06 15:07:00,
2013-09-06 11:12:00,88.7,75.2,30.08,NNW,337,4.5,5.7,64,0.00,,,0.00,WUHU216PEETBRO,2013-09-06 15:12:00,
2013-09-06 11:17:00,89.1,74.3,30.08,West,269,3.3,5.7,61,0.00,,,0.00,WUHU216PEETBRO,2013-09-06 15:17:00,
2013-09-06 11:22:00,88.6,74.4,30.08,WNW,299,0.0,4.8,63,0.00,,,0.00,WUHU216PEETBRO,2013-09-06 15:22:00,
2013-09-06 11:27:00,87.8,75.1,30.08,ESE,122,3.4,4.8,66,0.00,,,0.00,WUHU216PEETBRO,2013-09-06 15:27:00,
2013-09-06 11:32:00,87.3,75.2,30.09,East,81,0.0,4.8,67,0.00,,,0.00,WUHU216PEETBRO,2013-09-06 15:32:00,
2013-09-06 11:37:00,86.9,75.5,30.09,East,81,0.0,2.4,68,0.00,,,0.00,WUHU216PEETBRO,2013-09-06 15:37:00,
2013-09-06 11:42:00,87.1,74.7,30.08,SW,220,0.0,5.3,66,0.00,,,0.00,WUHU216PEETBRO,2013-09-06 15:42:00,
2013-09-06 11:47:00,87.7,74.4,30.08,SSW,213,0.0,5.3,64,0.00,,,0.00,WUHU216PEETBRO,2013-09-06 15:47:00,
2013-09-06 11:52:00,88.6,74.8,30.08,SSW,213,0.0,0.0,63,0.00,,,0.00,WUHU216PEETBRO,2013-09-06 15:52:00,
2013-09-06 11:57:00,89.0,74.0,30.08,SSW,213,0.0,0.0,61,0.00,,,0.00,WUHU216PEETBRO,2013-09-06 15:57:00,
2013-09-06 12:02:00,89.7,74.4,30.08,SSW,213,0.0,0.0,60,0.00,,,0.00,WUHU216PEETBRO,2013-09-06 16:02:00,
2013-09-06 12:07:00,90.3,73.5,30.07,SSW,213,0.0,3.3,57,0.00,,,0.00,WUHU216PEETBRO,2013-09-06 16:07:00,
2013-09-06 12:12:00,90.6,74.2,30.07,NE,39,0.0,3.3,58,0.00,,,0.00,WUHU216PEETBRO,2013-09-06 16:12:00,
2013-09-06 12:17:00,90.9,73.5,30.07,SSE,156,0.0,5.2,56,0.00,,,0.00,WUHU216PEETBRO,2013-09-06 16:17:00,
2013-09-06 12:22:00,91.2,73.1,30.06,SE,127,0.0,5.2,55,0.00,,,0.00,WUHU216PEETBRO,2013-09-06 16:22:00,
2013-09-06 12:27:00,91.6,72.7,30.06,SE,143,0.0,6.6,54,0.00,,,0.00,WUHU216PEETBRO,2013-09-06 16:27:00,
2013-09-06 12:32:00,91.9,73.0,30.06,WSW,251,0.0,6.6,54,0.00,,,0.00,WUHU216PEETBRO,2013-09-06 16:32:00,
2013-09-06 12:37:00,92.6,73.3,30.06,NE,43,0.0,5.2,53,0.00,,,0.00,WUHU216PEETBRO,2013-09-06 16:37:00,
2013-09-06 12:42:00,92.8,73.2,30.05,NE,46,7.1,7.1,53,0.00,,,0.00,WUHU216PEETBRO,2013-09-06 16:42:00,
2013-09-06 12:47:00,92.1,72.5,30.05,SSE,158,0.0,7.1,53,0.00,,,0.00,WUHU216PEETBRO,2013-09-06 16:47:00,
2013-09-06 12:52:00,91.9,72.8,30.05,East,100,0.0,7.3,54,0.00,,,0.00,WUHU216PEETBRO,2013-09-06 16:52:00,
2013-09-06 12:57:00,91.9,72.5,30.05,ESE,114,2.9,7.3,53,0.00,,,0.00,WUHU216PEETBRO,2013-09-06 16:57:00,
2013-09-06 13:02:00,91.9,73.1,30.05,ENE,59,0.0,6.9,54,0.00,,,0.00,WUHU216PEETBRO,2013-09-06 17:02:00,
2013-09-06 13:07:00,92.3,72.1,30.05,SE,124,0.0,4.6,52,0.00,,,0.00,WUHU216PEETBRO,2013-09-06 17:07:00,
2013-09-06 13:12:00,92.2,72.5,30.04,SE,124,0.0,4.6,52,0.00,,,0.00,WUHU216PEETBRO,2013-09-06 17:12:00,
2013-09-06 13:17:00,91.5,73.5,30.04,WSW,241,5.0,6.4,55,0.00,,,0.00,WUHU216PEETBRO,2013-09-06 17:17:00,
2013-09-06 13:22:00,91.1,72.9,30.04,WSW,248,5.7,6.4,55,0.00,,,0.00,WUHU216PEETBRO,2013-09-06 17:22:00,
2013-09-06 13:27:00,91.4,72.9,30.04,WSW,237,5.6,6.2,55,0.00,,,0.00,WUHU216PEETBRO,2013-09-06 17:27:00,
2013-09-06 13:32:00,92.3,72.8,30.03,SSE,162,0.0,7.1,53,0.00,,,0.00,WUHU216PEETBRO,2013-09-06 17:32:00,
2013-09-06 13:37:00,92.4,72.2,30.03,SW,220,5.2,7.4,52,0.00,,,0.00,WUHU216PEETBRO,2013-09-06 17:37:00,
2013-09-06 13:42:00,92.2,72.3,30.03,West,259,0.0,7.4,52,0.00,,,0.00,WUHU216PEETBRO,2013-09-06 17:42:00,
2013-09-06 13:47:00,92.3,72.2,30.02,SSE,152,3.4,7.0,52,0.00,,,0.00,WUHU216PEETBRO,2013-09-06 17:47:00,
2013-09-06 13:52:00,92.7,72.1,30.03,South,190,3.4,8.1,51,0.00,,,0.00,WUHU216PEETBRO,2013-09-06 17:52:00,
2013-09-06 13:57:00,92.7,71.7,30.03,WSW,249,0.0,8.1,50,0.00,,,0.00,WUHU216PEETBRO,2013-09-06 17:57:00,
2013-09-06 14:02:00,93.0,72.0,30.02,SE,143,0.0,6.9,50,0.00,,,0.00,WUHU216PEETBRO,2013-09-06 18:02:00,
2013-09-06 14:07:00,92.7,72.0,30.01,SSW,211,4.4,5.6,51,0.00,,,0.00,WUHU216PEETBRO,2013-09-06 18:07:00,
2013-09-06 14:12:00,92.1,72.0,30.02,SE,139,0.0,5.6,52,0.00,,,0.00,WUHU216PEETBRO,2013-09-06 18:12:00,
2013-09-06 14:17:00,90.6,71.5,30.03,NNE,21,8.5,17.5,53,0.00,,,0.00,WUHU216PEETBRO,2013-09-06 18:17:00,
2013-09-06 14:22:00,87.6,71.3,30.02,NE,42,15.5,18.1,58,0.00,,,0.00,WUHU216PEETBRO,2013-09-06 18:22:00,
2013-09-06 14:27:00,84.5,70.9,30.03,NE,42,8.2,22.2,63,0.00,,,0.00,WUHU216PEETBRO,2013-09-06 18:27:00,
2013-09-06 14:32:00,82.4,71.3,30.02,North,358,7.0,22.2,69,0.00,,,0.00,WUHU216PEETBRO,2013-09-06 18:32:00,
2013-09-06 14:37:00,80.7,71.4,30.03,ENE,57,12.8,20.8,73,0.00,,,0.00,WUHU216PEETBRO,2013-09-06 18:37:00,
2013-09-06 14:42:00,79.5,72.0,30.03,NNE,25,7.3,23.2,78,0.00,,,0.00,WUHU216PEETBRO,2013-09-06 18:42:00,
2013-09-06 14:47:00,77.9,72.7,30.04,North,359,19.9,23.2,84,0.00,,,0.00,WUHU216PEETBRO,2013-09-06 18:47:00,
2013-09-06 14:52:00,76.4,72.9,30.05,NNE,21,11.6,19.9,89,0.00,,,0.00,WUHU216PEETBRO,2013-09-06 18:52:00,
2013-09-06 14:57:00,75.3,73.6,30.05,NNW,331,19.3,20.9,94,0.01,,,0.01,WUHU216PEETBRO,2013-09-06 18:57:00,
2013-09-06 15:02:00,74.6,73.4,30.05,North,8,8.9,22.7,96,0.04,,,0.04,WUHU216PEETBRO,2013-09-06 19:02:00,
2013-09-06 15:07:00,73.9,73.0,30.06,North,359,3.4,22.7,97,0.10,,,0.10,WUHU216PEETBRO,2013-09-06 19:07:00,
2013-09-06 15:12:00,73.4,72.7,30.06,North,9,1.5,15.4,98,0.24,,,0.24,WUHU216PEETBRO,2013-09-06 19:12:00,
2013-09-06 15:17:00,73.0,72.3,30.06,NW,306,0.0,11.9,98,0.31,,,0.31,WUHU216PEETBRO,2013-09-06 19:17:00,
2013-09-06 15:22:00,72.8,72.4,30.06,NW,323,0.0,7.1,99,0.44,,,0.44,WUHU216PEETBRO,2013-09-06 19:22:00,
2013-09-06 15:27:00,72.8,72.4,30.07,NW,323,0.0,5.1,99,0.53,,,0.53,WUHU216PEETBRO,2013-09-06 19:27:00,
2013-09-06 15:32:00,72.6,72.3,30.07,NW,323,0.0,0.0,99,0.59,,,0.59,WUHU216PEETBRO,2013-09-06 19:32:00,
2013-09-06 15:37:00,72.9,72.8,30.07,NW,323,0.0,0.0,100,0.62,,,0.62,WUHU216PEETBRO,2013-09-06 19:37:00,
2013-09-06 15:42:00,73.0,72.9,30.06,NW,323,0.0,2.6,100,0.64,,,0.64,WUHU216PEETBRO,2013-09-06 19:42:00,
2013-09-06 15:47:00,72.7,72.6,30.05,SSE,155,0.0,6.0,100,0.65,,,0.65,WUHU216PEETBRO,2013-09-06 19:47:00,
2013-09-06 15:52:00,72.6,72.4,30.04,SSE,155,0.0,6.0,100,0.65,,,0.65,WUHU216PEETBRO,2013-09-06 19:52:00,
2013-09-06 15:57:00,72.6,72.3,30.04,SSE,155,2.8,2.8,99,0.64,,,0.65,WUHU216PEETBRO,2013-09-06 19:57:00,
2013-09-06 16:02:00,72.5,72.1,30.04,ESE,104,0.0,4.3,99,0.61,,,0.65,WUHU216PEETBRO,2013-09-06 20:02:00,
2013-09-06 16:07:00,72.8,72.5,30.04,ESE,104,0.0,4.3,99,0.55,,,0.65,WUHU216PEETBRO,2013-09-06 20:07:00,
2013-09-06 16:12:00,73.0,72.7,30.04,ESE,104,0.0,3.0,99,0.42,,,0.66,WUHU216PEETBRO,2013-09-06 20:12:00,
2013-09-06 16:17:00,73.1,72.8,30.04,ESE,104,0.0,0.0,99,0.34,,,0.66,WUHU216PEETBRO,2013-09-06 20:17:00,
2013-09-06 16:22:00,73.4,73.0,30.04,ESE,104,0.0,0.0,99,0.21,,,0.66,WUHU216PEETBRO,2013-09-06 20:22:00,
2013-09-06 16:27:00,73.4,73.0,30.03,ESE,104,0.0,0.0,99,0.12,,,0.66,WUHU216PEETBRO,2013-09-06 20:27:00,
2013-09-06 16:32:00,73.5,73.1,30.02,ESE,104,0.0,0.0,99,0.08,,,0.67,WUHU216PEETBRO,2013-09-06 20:32:00,
2013-09-06 16:37:00,73.6,73.2,30.02,ESE,104,0.0,0.0,99,0.05,,,0.67,WUHU216PEETBRO,2013-09-06 20:37:00,
2013-09-06 16:42:00,73.8,73.4,30.03,ESE,104,0.0,0.0,99,0.03,,,0.67,WUHU216PEETBRO,2013-09-06 20:42:00,
2013-09-06 16:47:00,73.9,73.5,30.04,ESE,104,0.0,0.0,99,0.03,,,0.68,WUHU216PEETBRO,2013-09-06 20:47:00,
2013-09-06 16:52:00,74.0,73.6,30.04,ESE,104,0.0,0.0,99,0.03,,,0.68,WUHU216PEETBRO,2013-09-06 20:52:00,
2013-09-06 16:57:00,74.1,73.6,30.04,ESE,104,0.0,0.0,99,0.03,,,0.68,WUHU216PEETBRO,2013-09-06 20:57:00,
2013-09-06 17:02:00,74.1,73.6,30.05,ESE,104,0.0,0.0,98,0.03,,,0.68,WUHU216PEETBRO,2013-09-06 21:02:00,
2013-09-06 17:07:00,74.2,73.7,30.05,ESE,104,0.0,0.0,98,0.04,,,0.69,WUHU216PEETBRO,2013-09-06 21:07:00,
2013-09-06 17:12:00,74.2,73.7,30.05,ESE,104,0.0,0.0,98,0.03,,,0.69,WUHU216PEETBRO,2013-09-06 21:12:00,
2013-09-06 17:17:00,74.3,73.9,30.05,ESE,104,0.0,0.0,99,0.03,,,0.69,WUHU216PEETBRO,2013-09-06 21:17:00,
2013-09-06 17:22:00,74.4,73.9,30.05,ESE,104,0.0,0.0,99,0.03,,,0.69,WUHU216PEETBRO,2013-09-06 21:22:00,
2013-09-06 17:27:00,74.5,74.1,30.05,ESE,104,0.0,0.0,99,0.03,,,0.69,WUHU216PEETBRO,2013-09-06 21:27:00,
2013-09-06 17:32:00,74.5,74.0,30.05,ESE,104,0.0,0.0,99,0.02,,,0.69,WUHU216PEETBRO,2013-09-06 21:32:00,
2013-09-06 17:37:00,74.6,74.3,30.05,ESE,104,0.0,0.0,99,0.03,,,0.70,WUHU216PEETBRO,2013-09-06 21:37:00,
2013-09-06 17:42:00,74.7,74.4,30.04,ESE,104,0.0,0.0,99,0.03,,,0.70,WUHU216PEETBRO,2013-09-06 21:42:00,
2013-09-06 17:47:00,74.7,74.5,30.04,ESE,104,0.0,0.0,99,0.02,,,0.70,WUHU216PEETBRO,2013-09-06 21:47:00,
2013-09-06 17:52:00,74.4,74.1,30.04,ESE,104,0.0,0.0,99,0.02,,,0.70,WUHU216PEETBRO,2013-09-06 21:52:00,
2013-09-06 17:57:00,74.3,74.0,30.04,ESE,104,0.0,0.0,99,0.02,,,0.70,WUHU216PEETBRO,2013-09-06 21:57:00,
2013-09-06 18:03:00,74.4,74.1,30.04,ESE,104,0.0,0.0,99,0.02,,,0.70,WUHU216PEETBRO,2013-09-06 22:03:00,
2013-09-06 18:08:00,74.6,74.3,30.03,ESE,104,0.0,0.0,99,0.02,,,0.71,WUHU216PEETBRO,2013-09-06 22:08:00,
2013-09-06 18:13:00,74.6,74.2,30.03,ESE,104,0.0,0.0,99,0.03,,,0.72,WUHU216PEETBRO,2013-09-06 22:13:00,
2013-09-06 18:18:00,74.5,74.1,30.03,ESE,104,0.0,0.0,99,0.03,,,0.72,WUHU216PEETBRO,2013-09-06 22:18:00,
2013-09-06 18:24:00,74.5,74.1,30.03,ESE,104,0.0,0.0,99,0.03,,,0.72,WUHU216PEETBRO,2013-09-06 22:24:00,
2013-09-06 18:29:00,74.6,74.2,30.03,ESE,104,0.0,0.0,99,0.04,,,0.73,WUHU216PEETBRO,2013-09-06 22:29:00,
2013-09-06 18:34:00,74.7,74.3,30.03,ESE,104,0.0,0.0,99,0.05,,,0.74,WUHU216PEETBRO,2013-09-06 22:34:00,
2013-09-06 18:39:00,74.8,74.4,30.03,SW,225,3.5,3.5,99,0.04,,,0.74,WUHU216PEETBRO,2013-09-06 22:39:00,
2013-09-06 18:44:00,74.8,74.4,30.03,SW,218,0.0,4.9,99,0.05,,,0.75,WUHU216PEETBRO,2013-09-06 22:44:00,
2013-09-06 18:49:00,74.7,74.2,30.03,SW,218,0.0,4.9,99,0.05,,,0.75,WUHU216PEETBRO,2013-09-06 22:49:00,
2013-09-06 18:54:00,74.7,74.2,30.04,SW,218,0.0,0.0,98,0.05,,,0.75,WUHU216PEETBRO,2013-09-06 22:54:00,
2013-09-06 18:59:00,74.8,74.3,30.04,SW,218,0.0,0.0,98,0.06,,,0.76,WUHU216PEETBRO,2013-09-06 22:59:00,
2013-09-06 19:04:00,74.8,74.3,30.05,West,280,5.0,7.5,98,0.06,,,0.77,WUHU216PEETBRO,2013-09-06 23:04:00,
2013-09-06 19:09:00,74.9,74.3,30.05,NNW,335,5.7,9.3,98,0.06,,,0.77,WUHU216PEETBRO,2013-09-06 23:09:00,
2013-09-06 19:14:00,74.9,74.3,30.05,WNW,287,0.0,9.3,98,0.05,,,0.77,WUHU216PEETBRO,2013-09-06 23:14:00,
2013-09-06 19:19:00,74.9,74.3,30.05,NW,314,0.0,7.4,98,0.06,,,0.78,WUHU216PEETBRO,2013-09-06 23:19:00,
2013-09-06 19:24:00,74.9,74.3,30.04,NW,314,0.0,2.2,98,0.06,,,0.78,WUHU216PEETBRO,2013-09-06 23:24:00,
2013-09-06 19:29:00,74.9,74.2,30.04,NW,314,0.0,0.0,98,0.05,,,0.78,WUHU216PEETBRO,2013-09-06 23:29:00,
2013-09-06 19:34:00,74.9,74.2,30.04,NW,317,0.0,3.1,98,0.04,,,0.78,WUHU216PEETBRO,2013-09-06 23:34:00,
2013-09-06 19:39:00,74.9,74.2,30.04,NW,306,0.0,6.6,98,0.04,,,0.78,WUHU216PEETBRO,2013-09-06 23:39:00,
2013-09-06 19:44:00,74.9,74.3,30.04,NW,314,5.3,7.0,98,0.03,,,0.78,WUHU216PEETBRO,2013-09-06 23:44:00,
2013-09-06 19:49:00,74.9,74.2,30.05,WNW,300,0.0,7.0,98,0.03,,,0.78,WUHU216PEETBRO,2013-09-06 23:49:00,
2013-09-06 19:54:00,74.8,74.1,30.05,WNW,287,0.0,6.9,98,0.03,,,0.78,WUHU216PEETBRO,2013-09-06 23:54:00,
2013-09-06 19:59:00,74.7,74.1,30.05,WSW,258,0.0,5.5,98,0.02,,,0.78,WUHU216PEETBRO,2013-09-06 23:59:00,
2013-09-06 20:04:00,74.6,74.0,30.05,WSW,258,0.0,5.8,98,0.01,,,0.78,WUHU216PEETBRO,2013-09-07 00:04:00,
2013-09-06 20:09:00,74.5,73.9,30.05,NW,326,0.0,5.8,98,0.01,,,0.78,WUHU216PEETBRO,2013-09-07 00:09:00,
2013-09-06 20:14:00,74.5,74.0,30.05,West,278,0.0,5.3,98,0.02,,,0.79,WUHU216PEETBRO,2013-09-07 00:14:00,
2013-09-06 20:19:00,74.4,73.9,30.05,West,278,0.0,3.5,98,0.01,,,0.79,WUHU216PEETBRO,2013-09-07 00:19:00,
2013-09-06 20:24:00,74.4,73.9,30.05,SW,218,0.0,5.4,98,0.01,,,0.79,WUHU216PEETBRO,2013-09-07 00:24:00,
2013-09-06 20:29:00,74.3,73.8,30.05,SW,218,0.0,5.4,98,0.01,,,0.79,WUHU216PEETBRO,2013-09-07 00:29:00,
2013-09-06 20:34:00,74.4,73.9,30.04,SW,218,0.0,0.0,98,0.01,,,0.79,WUHU216PEETBRO,2013-09-07 00:34:00,
2013-09-06 20:39:00,74.4,73.9,30.04,SW,218,0.0,0.0,99,0.01,,,0.79,WUHU216PEETBRO,2013-09-07 00:39:00,
2013-09-06 20:44:00,74.3,73.8,30.04,SW,218,0.0,0.0,98,0.01,,,0.79,WUHU216PEETBRO,2013-09-07 00:44:00,
2013-09-06 20:49:00,74.4,73.9,30.04,SW,218,0.0,0.0,98,0.01,,,0.79,WUHU216PEETBRO,2013-09-07 00:49:00,
2013-09-06 20:54:00,74.5,74.0,30.04,SW,218,0.0,0.0,98,0.01,,,0.79,WUHU216PEETBRO,2013-09-07 00:54:00,
2013-09-06 20:59:00,74.4,73.9,30.04,North,359,0.0,2.9,98,0.01,,,0.79,WUHU216PEETBRO,2013-09-07 00:59:00,
2013-09-06 21:04:00,74.3,73.8,30.04,North,359,0.0,2.9,98,0.01,,,0.79,WUHU216PEETBRO,2013-09-07 01:04:00,
2013-09-06 21:09:00,74.3,73.8,30.04,North,359,0.0,0.0,98,0.01,,,0.79,WUHU216PEETBRO,2013-09-07 01:09:00,
2013-09-06 21:14:00,74.2,73.7,30.03,North,359,0.0,0.0,98,0.00,,,0.79,WUHU216PEETBRO,2013-09-07 01:14:00,
2013-09-06 21:19:00,74.2,73.7,30.03,North,359,0.0,0.0,98,0.00,,,0.79,WUHU216PEETBRO,2013-09-07 01:19:00,
2013-09-06 21:24:00,74.2,73.7,30.03,North,359,0.0,0.0,98,0.00,,,0.79,WUHU216PEETBRO,2013-09-07 01:24:00,
2013-09-06 21:29:00,74.2,73.7,30.03,North,359,0.0,0.0,98,0.00,,,0.79,WUHU216PEETBRO,2013-09-07 01:29:00,
2013-09-06 21:34:00,74.2,73.7,30.03,North,359,0.0,0.0,99,0.00,,,0.79,WUHU216PEETBRO,2013-09-07 01:34:00,
2013-09-06 21:39:00,74.3,73.8,30.03,North,359,0.0,0.0,98,0.00,,,0.79,WUHU216PEETBRO,2013-09-07 01:39:00,
2013-09-06 21:44:00,74.3,73.8,30.03,North,359,0.0,0.0,99,0.00,,,0.79,WUHU216PEETBRO,2013-09-07 01:44:00,
2013-09-06 21:49:00,74.2,73.7,30.03,NNW,337,0.0,5.3,98,0.00,,,0.79,WUHU216PEETBRO,2013-09-07 01:49:00,
2013-09-06 21:54:00,74.2,73.7,30.02,NNW,337,0.0,5.3,99,0.00,,,0.79,WUHU216PEETBRO,2013-09-07 01:54:00,
2013-09-06 21:59:00,74.1,73.6,30.02,NNW,337,0.0,0.0,99,0.00,,,0.79,WUHU216PEETBRO,2013-09-07 01:59:00,
2013-09-06 22:04:00,74.0,73.5,30.01,NNW,337,0.0,0.0,99,0.00,,,0.79,WUHU216PEETBRO,2013-09-07 02:04:00,
2013-09-06 22:09:00,74.0,73.5,30.01,NNW,337,0.0,0.0,99,0.00,,,0.79,WUHU216PEETBRO,2013-09-07 02:09:00,
2013-09-06 22:14:00,74.0,73.5,30.01,NNW,337,0.0,0.0,99,0.00,,,0.79,WUHU216PEETBRO,2013-09-07 02:14:00,
2013-09-06 22:19:00,74.0,73.5,30.01,NNW,337,0.0,0.0,99,0.00,,,0.79,WUHU216PEETBRO,2013-09-07 02:19:00,
2013-09-06 22:24:00,74.0,73.5,30.02,NNW,337,0.0,0.0,99,0.00,,,0.79,WUHU216PEETBRO,2013-09-07 02:24:00,
2013-09-06 22:29:00,74.1,73.6,30.02,NNW,337,0.0,0.0,99,0.00,,,0.79,WUHU216PEETBRO,2013-09-07 02:29:00,
2013-09-06 22:34:00,74.0,73.6,30.02,NNW,337,0.0,0.0,99,0.00,,,0.79,WUHU216PEETBRO,2013-09-07 02:34:00,
2013-09-06 22:39:00,74.3,73.9,30.02,NNW,337,0.0,0.0,99,0.00,,,0.79,WUHU216PEETBRO,2013-09-07 02:39:00,
2013-09-06 22:44:00,74.2,73.7,30.02,NNW,337,0.0,0.0,99,0.00,,,0.79,WUHU216PEETBRO,2013-09-07 02:44:00,
2013-09-06 22:49:00,74.3,73.8,30.03,NNW,337,0.0,0.0,99,0.00,,,0.79,WUHU216PEETBRO,2013-09-07 02:49:00,
2013-09-06 22:54:00,74.3,73.8,30.04,NNW,337,0.0,0.0,99,0.00,,,0.79,WUHU216PEETBRO,2013-09-07 02:54:00,
2013-09-06 22:59:00,74.2,73.8,30.04,NNW,337,0.0,0.0,99,0.00,,,0.79,WUHU216PEETBRO,2013-09-07 02:59:00,
2013-09-06 23:04:00,74.1,73.7,30.04,NNW,337,0.0,0.0,99,0.00,,,0.79,WUHU216PEETBRO,2013-09-07 03:04:00,
2013-09-06 23:09:00,74.2,73.8,30.05,NNW,337,0.0,0.0,99,0.00,,,0.79,WUHU216PEETBRO,2013-09-07 03:09:00,
2013-09-06 23:14:00,74.2,73.8,30.05,NNW,337,0.0,0.0,99,0.00,,,0.79,WUHU216PEETBRO,2013-09-07 03:14:00,
2013-09-06 23:19:00,74.3,73.9,30.05,NNW,337,0.0,0.0,99,0.00,,,0.79,WUHU216PEETBRO,2013-09-07 03:19:00,
2013-09-06 23:24:00,74.4,74.0,30.06,NNW,337,0.0,0.0,99,0.00,,,0.79,WUHU216PEETBRO,2013-09-07 03:24:00,
2013-09-06 23:29:00,74.4,74.0,30.06,NNW,337,0.0,0.0,99,0.00,,,0.79,WUHU216PEETBRO,2013-09-07 03:29:00,
2013-09-06 23:34:00,74.5,74.1,30.06,NNW,337,0.0,0.0,99,0.00,,,0.79,WUHU216PEETBRO,2013-09-07 03:34:00,
2013-09-06 23:39:00,74.5,74.1,30.06,NNW,337,0.0,0.0,99,0.00,,,0.79,WUHU216PEETBRO,2013-09-07 03:39:00,
2013-09-06 23:44:00,74.5,74.1,30.06,NNW,337,0.0,0.0,99,0.00,,,0.79,WUHU216PEETBRO,2013-09-07 03:44:00,
2013-09-06 23:49:00,74.6,74.2,30.06,NNW,337,0.0,0.0,99,0.00,,,0.79,WUHU216PEETBRO,2013-09-07 03:49:00,
2013-09-06 23:54:00,74.5,74.1,30.06,NNW,337,0.0,0.0,99,0.00,,,0.79,WUHU216PEETBRO,2013-09-07 03:54:00,
2013-09-06 23:59:00,74.6,74.2,30.06,NNW,337,0.0,0.0,99,0.00,,,0.79,WUHU216PEETBRO,2013-09-07 03:59:00,